createdAt,value
2023-05-13T00:01:27.905Z,9.01
2023-05-13T00:03:56.072Z,8.93
2023-05-13T00:06:25.500Z,8.91
2023-05-13T00:08:53.667Z,8.86
2023-05-13T00:11:21.792Z,8.84
2023-05-13T00:13:50.098Z,8.81
2023-05-13T00:16:18.959Z,8.78
2023-05-13T00:18:47.073Z,8.82
2023-05-13T00:21:15.516Z,8.78
2023-05-13T00:23:45.115Z,8.76
2023-05-13T00:26:13.237Z,8.68
2023-05-13T00:28:41.238Z,8.66
2023-05-13T00:31:10.137Z,8.59
2023-05-13T00:33:38.706Z,8.59
2023-05-13T00:36:07.859Z,8.52
2023-05-13T00:38:36.201Z,8.51
2023-05-13T00:41:06.998Z,8.49
2023-05-13T00:43:35.111Z,8.51
2023-05-13T00:46:03.807Z,8.46
2023-05-13T00:48:32.148Z,8.43
2023-05-13T00:51:00.772Z,8.40
2023-05-13T00:53:29.056Z,8.36
2023-05-13T00:55:57.112Z,8.35
2023-05-13T00:58:26.801Z,8.32
2023-05-13T01:01:05.833Z,8.28
2023-05-13T01:03:43.522Z,8.21
2023-05-13T01:06:18.149Z,8.19
2023-05-13T01:08:58.269Z,8.18
2023-05-13T01:11:29.256Z,8.17
2023-05-13T01:14:05.113Z,8.16
2023-05-13T01:16:41.427Z,8.16
2023-05-13T01:19:34.969Z,8.12
2023-05-13T01:22:06.744Z,8.08
2023-05-13T01:24:34.877Z,8.04
2023-05-13T01:27:03.309Z,8.09
2023-05-13T01:29:31.608Z,8.12
2023-05-13T01:32:01.593Z,8.14
2023-05-13T01:34:30.863Z,8.10
2023-05-13T01:37:00.297Z,8.03
2023-05-13T01:39:32.626Z,8.03
2023-05-13T01:42:00.882Z,8.04
2023-05-13T01:44:29.058Z,8.07
2023-05-13T01:46:57.506Z,8.09
2023-05-13T01:49:25.907Z,8.11
2023-05-13T01:51:54.340Z,8.12
2023-05-13T01:54:22.789Z,8.10
2023-05-13T01:56:53.110Z,8.08
2023-05-13T01:59:21.210Z,8.08
2023-05-13T02:01:49.365Z,8.10
2023-05-13T02:04:17.910Z,8.14
2023-05-13T02:06:45.907Z,8.19
2023-05-13T02:09:13.891Z,8.26
2023-05-13T02:11:42.539Z,8.26
2023-05-13T02:14:12.367Z,8.24
2023-05-13T02:16:40.643Z,8.23
2023-05-13T02:19:09.145Z,8.23
2023-05-13T02:21:37.301Z,8.23
2023-05-13T02:24:06.402Z,8.23
2023-05-13T02:26:34.608Z,8.23
2023-05-13T02:29:02.717Z,8.24
2023-05-13T02:31:32.208Z,8.31
2023-05-13T02:34:00.391Z,8.36
2023-05-13T02:36:28.459Z,8.33
2023-05-13T02:38:56.489Z,8.33
2023-05-13T02:41:24.563Z,8.34
2023-05-13T02:43:52.656Z,8.34
2023-05-13T02:46:20.850Z,8.36
2023-05-13T02:48:50.300Z,8.36
2023-05-13T02:51:18.730Z,8.39
2023-05-13T02:53:46.813Z,8.40
2023-05-13T02:56:16.445Z,8.40
2023-05-13T02:58:44.580Z,8.44
2023-05-13T03:01:12.627Z,8.46
2023-05-13T03:03:41.179Z,8.52
2023-05-13T03:06:11.672Z,8.56
2023-05-13T03:08:39.904Z,8.61
2023-05-13T03:11:08.428Z,8.69
2023-05-13T03:13:36.596Z,8.78
2023-05-13T03:16:05.006Z,8.86
2023-05-13T03:18:33.272Z,8.95
2023-05-13T03:21:01.478Z,9.03
2023-05-13T03:23:31.587Z,9.19
2023-05-13T03:25:59.552Z,9.27
2023-05-13T03:28:27.562Z,9.49
2023-05-13T03:30:55.644Z,9.60
2023-05-13T03:33:23.823Z,9.63
2023-05-13T03:35:52.095Z,9.72
2023-05-13T03:38:20.336Z,9.86
2023-05-13T03:40:50.105Z,9.83
2023-05-13T03:43:18.254Z,9.95
2023-05-13T03:45:48.602Z,10.22
2023-05-13T03:48:16.759Z,10.33
2023-05-13T03:50:44.946Z,10.31
2023-05-13T03:53:13.175Z,10.32
2023-05-13T03:55:41.523Z,10.42
2023-05-13T03:58:15.690Z,10.20
2023-05-13T04:00:46.900Z,10.10
2023-05-13T04:03:16.325Z,10.05
2023-05-13T04:05:47.022Z,10.05
2023-05-13T04:08:15.683Z,10.00
2023-05-13T04:10:43.782Z,9.98
2023-05-13T04:13:14.177Z,10.06
2023-05-13T04:15:42.549Z,10.17
2023-05-13T04:18:11.125Z,10.39
2023-05-13T04:20:41.276Z,10.60
2023-05-13T04:23:15.637Z,10.88
2023-05-13T04:25:43.970Z,11.29
2023-05-13T04:28:13.626Z,11.46
2023-05-13T04:30:41.840Z,11.66
2023-05-13T04:33:10.115Z,11.81
2023-05-13T04:35:38.173Z,11.96
2023-05-13T04:38:07.515Z,12.12
2023-05-13T04:40:35.803Z,12.30
2023-05-13T04:43:04.129Z,12.34
2023-05-13T04:45:33.801Z,12.49
2023-05-13T04:48:02.469Z,12.55
2023-05-13T04:50:32.172Z,12.28
2023-05-13T04:53:00.817Z,12.67
2023-05-13T04:55:29.456Z,12.95
2023-05-13T04:57:59.440Z,13.06
2023-05-13T05:00:27.919Z,13.27
2023-05-13T05:02:58.284Z,13.61
2023-05-13T05:05:27.202Z,13.88
2023-05-13T05:07:55.382Z,13.80
2023-05-13T05:10:23.727Z,13.79
2023-05-13T05:12:52.095Z,14.04
2023-05-13T05:15:21.014Z,14.34
2023-05-13T05:17:49.199Z,14.71
2023-05-13T05:20:19.771Z,14.90
2023-05-13T05:22:50.527Z,14.73
2023-05-13T05:25:19.453Z,14.37
2023-05-13T05:27:47.615Z,14.11
2023-05-13T05:30:16.482Z,14.24
2023-05-13T05:32:44.989Z,14.47
2023-05-13T05:35:13.719Z,14.09
2023-05-13T05:37:43.713Z,14.19
2023-05-13T05:40:13.519Z,13.78
2023-05-13T05:42:42.092Z,13.80
2023-05-13T05:45:11.691Z,14.18
2023-05-13T05:47:39.937Z,14.05
2023-05-13T05:50:11.849Z,14.13
2023-05-13T05:52:39.884Z,14.00
2023-05-13T05:55:11.264Z,13.94
2023-05-13T05:57:39.800Z,14.07
2023-05-13T06:00:09.630Z,13.96
2023-05-13T06:02:37.802Z,13.92
2023-05-13T06:05:07.572Z,14.02
2023-05-13T06:07:36.612Z,13.89
2023-05-13T06:10:06.430Z,13.70
2023-05-13T06:12:37.707Z,13.86
2023-05-13T06:15:10.666Z,13.63
2023-05-13T06:17:39.505Z,13.61
2023-05-13T06:20:08.747Z,13.43
2023-05-13T06:22:36.909Z,13.31
2023-05-13T06:25:05.607Z,13.72
2023-05-13T06:27:34.605Z,13.59
2023-05-13T06:30:04.315Z,13.53
2023-05-13T06:32:33.127Z,13.88
2023-05-13T06:35:03.534Z,14.31
2023-05-13T06:37:31.951Z,14.40
2023-05-13T06:40:00.259Z,14.72
2023-05-13T06:42:28.397Z,14.76
2023-05-13T06:44:57.114Z,14.67
2023-05-13T06:47:26.726Z,14.38
2023-05-13T06:49:55.217Z,14.17
2023-05-13T06:52:23.358Z,14.37
2023-05-13T06:54:51.557Z,14.58
2023-05-13T06:57:20.765Z,14.85
2023-05-13T06:59:50.089Z,14.80
2023-05-13T07:02:18.513Z,14.98
2023-05-13T07:04:48.842Z,15.19
2023-05-13T07:07:16.793Z,15.23
2023-05-13T07:09:45.334Z,15.32
2023-05-13T07:12:14.990Z,15.68
2023-05-13T07:14:45.457Z,15.71
2023-05-13T07:17:14.933Z,15.88
2023-05-13T07:19:43.208Z,16.11
2023-05-13T07:22:13.572Z,15.99
2023-05-13T07:24:42.322Z,15.78
2023-05-13T07:27:10.472Z,15.60
2023-05-13T07:29:38.938Z,15.68
2023-05-13T07:32:09.221Z,15.96
2023-05-13T07:34:38.715Z,16.10
2023-05-13T07:37:07.228Z,15.97
2023-05-13T07:39:37.752Z,16.20
2023-05-13T07:42:06.428Z,16.12
2023-05-13T07:44:35.453Z,15.97
2023-05-13T07:47:05.939Z,15.82
2023-05-13T07:49:34.235Z,15.81
2023-05-13T07:52:05.627Z,15.68
2023-05-13T07:54:33.882Z,15.46
2023-05-13T07:57:04.141Z,15.49
2023-05-13T07:59:32.584Z,15.85
2023-05-13T08:02:03.789Z,15.67
2023-05-13T08:04:31.886Z,16.09
2023-05-13T08:07:02.968Z,16.45
2023-05-13T08:09:31.096Z,16.18
2023-05-13T08:11:59.274Z,15.88
2023-05-13T08:14:30.292Z,15.79
2023-05-13T08:16:58.596Z,15.81
2023-05-13T08:19:29.281Z,15.77
2023-05-13T08:21:58.133Z,16.31
2023-05-13T08:24:26.685Z,16.63
2023-05-13T08:26:55.270Z,16.91
2023-05-13T08:29:23.953Z,17.27
2023-05-13T08:31:55.855Z,17.19
2023-05-13T08:34:24.707Z,17.52
2023-05-13T08:36:54.184Z,17.73
2023-05-13T08:39:22.387Z,17.74
2023-05-13T08:41:54.152Z,17.23
2023-05-13T08:44:28.674Z,16.93
2023-05-13T08:47:06.792Z,16.87
2023-05-13T08:49:36.148Z,16.81
2023-05-13T08:52:04.962Z,16.63
2023-05-13T08:54:33.598Z,16.44
2023-05-13T08:57:01.729Z,16.30
2023-05-13T08:59:29.772Z,16.20
2023-05-13T09:02:03.283Z,16.15
2023-05-13T09:04:31.521Z,16.33
2023-05-13T09:07:00.213Z,16.69
2023-05-13T09:09:29.203Z,16.86
2023-05-13T09:11:57.816Z,17.00
2023-05-13T09:14:32.203Z,17.23
2023-05-13T09:17:02.808Z,17.46
2023-05-13T09:19:31.327Z,17.73
2023-05-13T09:22:00.237Z,17.82
2023-05-13T09:24:28.653Z,17.97
2023-05-13T09:26:57.099Z,18.00
2023-05-13T09:29:27.004Z,17.32
2023-05-13T09:31:56.711Z,17.55
2023-05-13T09:34:31.296Z,17.84
2023-05-13T09:37:03.793Z,18.12
2023-05-13T09:39:34.372Z,18.11
2023-05-13T09:42:04.905Z,17.83
2023-05-13T09:44:34.390Z,17.99
2023-05-13T09:47:03.715Z,17.97
2023-05-13T09:49:33.817Z,17.39
2023-05-13T09:52:02.573Z,17.07
2023-05-13T09:54:36.526Z,16.93
2023-05-13T09:57:08.322Z,16.91
2023-05-13T09:59:36.941Z,17.35
2023-05-13T10:02:08.823Z,17.70
2023-05-13T10:04:39.115Z,17.85
2023-05-13T10:07:09.166Z,17.79
2023-05-13T10:09:40.911Z,17.78
2023-05-13T10:12:11.578Z,17.67
2023-05-13T10:14:40.172Z,17.76
2023-05-13T10:17:09.729Z,17.86
2023-05-13T10:19:40.056Z,17.78
2023-05-13T10:22:09.474Z,17.60
2023-05-13T10:24:40.077Z,17.59
2023-05-13T10:27:09.372Z,17.76
2023-05-13T10:29:39.252Z,17.96
2023-05-13T10:32:10.204Z,18.22
2023-05-13T10:34:43.530Z,18.43
2023-05-13T10:37:34.078Z,18.27
2023-05-13T10:40:35.287Z,18.08
2023-05-13T10:43:14.545Z,18.07
2023-05-13T10:45:46.149Z,18.04
2023-05-13T10:48:15.653Z,18.10
2023-05-13T10:50:54.704Z,18.14
2023-05-13T10:53:32.614Z,18.46
2023-05-13T10:56:01.998Z,18.26
2023-05-13T10:58:32.113Z,18.27
2023-05-13T11:01:21.070Z,18.42
2023-05-13T11:03:54.350Z,18.30
2023-05-13T11:06:27.413Z,18.45
2023-05-13T11:08:56.517Z,18.27
2023-05-13T11:11:27.706Z,18.45
2023-05-13T11:13:57.789Z,18.78
2023-05-13T11:16:25.912Z,19.04
2023-05-13T11:18:55.706Z,19.38
2023-05-13T11:21:41.342Z,19.68
2023-05-13T11:24:09.508Z,19.76
2023-05-13T11:26:48.245Z,19.29
2023-05-13T11:29:16.693Z,18.84
2023-05-13T11:31:48.890Z,18.83
2023-05-13T11:34:18.127Z,19.08
2023-05-13T11:36:49.797Z,19.09
2023-05-13T11:39:20.025Z,19.04
2023-05-13T11:41:50.084Z,19.01
2023-05-13T11:44:23.098Z,18.82
2023-05-13T11:46:56.793Z,18.94
2023-05-13T11:49:34.506Z,19.04
2023-05-13T11:52:05.320Z,19.11
2023-05-13T11:54:33.589Z,19.20
2023-05-13T11:57:01.991Z,19.27
2023-05-13T11:59:38.677Z,19.27
2023-05-13T12:02:13.922Z,19.23
2023-05-13T12:04:42.124Z,19.49
2023-05-13T12:07:14.466Z,19.56
2023-05-13T12:09:42.572Z,19.78
2023-05-13T12:12:11.307Z,19.96
2023-05-13T12:14:39.545Z,19.70
2023-05-13T12:17:08.208Z,19.68
2023-05-13T12:19:37.438Z,19.60
2023-05-13T12:22:06.966Z,19.88
2023-05-13T12:24:36.955Z,20.09
2023-05-13T12:27:11.574Z,20.36
2023-05-13T12:29:43.738Z,20.62
2023-05-13T12:32:12.728Z,20.44
2023-05-13T12:34:41.281Z,20.43
2023-05-13T12:37:14.255Z,20.52
2023-05-13T12:39:44.115Z,20.58
2023-05-13T12:42:16.549Z,20.65
2023-05-13T12:44:46.063Z,20.55
2023-05-13T12:47:15.884Z,20.59
2023-05-13T12:49:54.295Z,20.73
2023-05-13T12:52:23.297Z,20.84
2023-05-13T12:54:54.085Z,20.94
2023-05-13T12:57:22.289Z,21.02
2023-05-13T12:59:50.404Z,21.15
2023-05-13T13:02:18.621Z,21.13
2023-05-13T13:04:47.022Z,21.02
2023-05-13T13:07:15.176Z,21.10
2023-05-13T13:09:43.282Z,21.21
2023-05-13T13:12:12.767Z,21.40
2023-05-13T13:14:41.313Z,21.62
2023-05-13T13:17:09.809Z,21.80
2023-05-13T13:19:37.879Z,21.46
2023-05-13T13:22:06.673Z,21.58
2023-05-13T13:24:35.620Z,21.72
2023-05-13T13:27:03.764Z,21.85
2023-05-13T13:29:33.794Z,21.92
2023-05-13T13:32:02.049Z,21.82
2023-05-13T13:34:30.176Z,21.43
2023-05-13T13:36:58.578Z,21.49
2023-05-13T13:39:26.594Z,20.98
2023-05-13T13:41:54.879Z,20.90
2023-05-13T13:44:22.972Z,20.64
2023-05-13T13:46:52.784Z,20.79
2023-05-13T13:49:24.057Z,20.58
2023-05-13T13:51:52.840Z,20.84
2023-05-13T13:54:21.136Z,21.21
2023-05-13T13:56:49.752Z,21.65
2023-05-13T13:59:19.395Z,21.91
2023-05-13T14:01:48.658Z,21.78
2023-05-13T14:04:23.410Z,21.87
2023-05-13T14:06:52.978Z,21.51
2023-05-13T14:09:21.098Z,21.46
2023-05-13T14:11:49.445Z,21.26
2023-05-13T14:14:17.596Z,21.48
2023-05-13T14:16:46.030Z,20.91
2023-05-13T14:19:15.186Z,20.42
2023-05-13T14:21:45.073Z,20.17
2023-05-13T14:24:13.638Z,20.34
2023-05-13T14:26:41.782Z,20.38
2023-05-13T14:29:10.015Z,20.67
2023-05-13T14:31:38.440Z,20.82
2023-05-13T14:34:08.110Z,20.56
2023-05-13T14:39:23.904Z,20.33
2023-05-13T14:41:51.950Z,20.37
2023-05-13T14:44:20.136Z,20.44
2023-05-13T14:46:48.413Z,20.43
2023-05-13T14:49:16.668Z,20.61
2023-05-13T14:51:44.831Z,20.85
2023-05-13T14:54:13.100Z,21.08
2023-05-13T14:56:42.773Z,21.06
2023-05-13T14:59:11.029Z,20.99
2023-05-13T15:01:39.356Z,21.10
2023-05-13T15:04:08.116Z,21.23
2023-05-13T15:06:38.687Z,21.23
2023-05-13T15:09:09.177Z,20.97
2023-05-13T15:11:40.489Z,20.77
2023-05-13T15:14:11.389Z,20.49
2023-05-13T15:16:39.782Z,20.25
2023-05-13T15:19:09.063Z,20.25
2023-05-13T15:21:37.481Z,20.47
2023-05-13T15:24:06.053Z,20.48
2023-05-13T15:26:34.567Z,20.45
2023-05-13T15:29:03.132Z,20.37
2023-05-13T15:31:32.943Z,20.25
2023-05-13T15:34:02.533Z,20.36
2023-05-13T15:36:31.213Z,20.62
2023-05-13T15:39:00.531Z,20.72
2023-05-13T15:41:30.653Z,20.82
2023-05-13T15:43:59.077Z,20.86
2023-05-13T15:46:30.767Z,20.81
2023-05-13T15:49:00.526Z,20.53
2023-05-13T15:51:29.344Z,20.47
2023-05-13T15:53:57.485Z,20.35
2023-05-13T15:56:26.239Z,20.19
2023-05-13T15:58:56.259Z,20.22
2023-05-13T16:01:24.696Z,20.37
2023-05-13T16:03:53.913Z,20.48
2023-05-13T16:06:23.514Z,20.52
2023-05-13T16:08:52.825Z,20.54
2023-05-13T16:11:22.082Z,20.55
2023-05-13T16:13:50.168Z,20.53
2023-05-13T16:16:18.450Z,20.60
2023-05-13T16:18:46.793Z,20.55
2023-05-13T16:21:15.837Z,20.36
2023-05-13T16:23:45.325Z,20.15
2023-05-13T16:26:13.478Z,20.04
2023-05-13T16:28:41.478Z,19.94
2023-05-13T16:31:09.577Z,19.74
2023-05-13T16:33:37.698Z,19.72
2023-05-13T16:36:06.906Z,19.69
2023-05-13T16:38:36.535Z,19.66
2023-05-13T16:41:08.015Z,19.49
2023-05-13T16:43:36.649Z,19.46
2023-05-13T16:46:05.058Z,19.36
2023-05-13T16:48:33.384Z,19.33
2023-05-13T16:51:01.781Z,19.34
2023-05-13T16:53:30.021Z,19.37
2023-05-13T16:55:58.644Z,19.33
2023-05-13T16:58:28.188Z,19.19
2023-05-13T17:00:58.541Z,19.07
2023-05-13T17:03:27.888Z,19.05
2023-05-13T17:05:56.377Z,18.92
2023-05-13T17:08:25.550Z,18.88
2023-05-13T17:10:53.746Z,18.80
2023-05-13T17:13:22.300Z,18.71
2023-05-13T17:15:52.310Z,18.55
2023-05-13T17:18:20.367Z,18.49
2023-05-13T17:20:48.606Z,18.41
2023-05-13T17:23:17.420Z,18.36
2023-05-13T17:25:45.602Z,18.36
2023-05-13T17:28:13.751Z,18.23
2023-05-13T17:30:43.587Z,18.12
2023-05-13T17:33:13.159Z,18.06
2023-05-13T17:35:41.289Z,18.07
2023-05-13T17:38:09.355Z,17.98
2023-05-13T17:40:37.725Z,17.95
2023-05-13T17:43:06.088Z,17.82
2023-05-13T17:45:35.971Z,17.72
2023-05-13T17:48:04.440Z,17.65
2023-05-13T17:50:34.049Z,17.65
2023-05-13T17:53:02.608Z,17.56
2023-05-13T17:55:31.147Z,17.52
2023-05-13T17:58:00.405Z,17.41
2023-05-13T18:00:29.288Z,17.34
2023-05-13T18:02:58.466Z,17.30
2023-05-13T18:05:26.806Z,17.34
2023-05-13T18:07:57.136Z,17.23
2023-05-13T18:10:27.466Z,17.21
2023-05-13T18:12:56.500Z,17.17
2023-05-13T18:15:24.658Z,17.10
2023-05-13T18:17:52.880Z,17.09
2023-05-13T18:20:21.521Z,17.02
2023-05-13T18:22:50.277Z,16.91
2023-05-13T18:25:20.979Z,16.84
2023-05-13T18:27:50.478Z,16.77
2023-05-13T18:30:19.805Z,16.77
2023-05-13T18:32:56.643Z,16.68
2023-05-13T18:35:24.953Z,16.58
2023-05-13T18:37:53.581Z,16.47
2023-05-13T18:40:23.445Z,16.43
2023-05-13T18:42:51.873Z,16.34
2023-05-13T18:45:19.988Z,16.39
2023-05-13T18:47:48.164Z,16.41
2023-05-13T18:50:17.556Z,16.34
2023-05-13T18:52:46.160Z,16.37
2023-05-13T18:55:14.262Z,16.24
2023-05-13T18:57:44.007Z,16.13
2023-05-13T19:00:13.594Z,16.09
2023-05-13T19:02:42.567Z,15.98
2023-05-13T19:05:12.097Z,15.97
2023-05-13T19:07:40.556Z,16.01
2023-05-13T19:10:09.437Z,15.99
2023-05-13T19:12:37.695Z,15.99
2023-05-13T19:15:09.345Z,15.91
2023-05-13T19:17:40.329Z,15.84
2023-05-13T19:20:10.572Z,15.87
2023-05-13T19:22:39.857Z,15.79
2023-05-13T19:25:09.506Z,15.81
2023-05-13T19:27:38.223Z,15.87
2023-05-13T19:30:09.888Z,15.83
2023-05-13T19:32:38.283Z,15.85
2023-05-13T19:35:07.829Z,15.78
2023-05-13T19:37:41.091Z,15.76
2023-05-13T19:40:11.083Z,15.72
2023-05-13T19:42:39.252Z,15.69
2023-05-13T19:45:10.892Z,15.61
2023-05-13T19:47:40.612Z,15.55
2023-05-13T19:50:10.949Z,15.54
2023-05-13T19:52:41.211Z,15.49
2023-05-13T19:55:10.867Z,15.44
2023-05-13T19:57:42.507Z,15.34
2023-05-13T20:00:15.383Z,15.34
2023-05-13T20:02:43.761Z,15.18
2023-05-13T20:05:23.737Z,15.14
2023-05-13T20:07:52.652Z,15.07
2023-05-13T20:10:21.189Z,15.08
2023-05-13T20:12:50.298Z,15.12
2023-05-13T20:15:20.510Z,15.07
2023-05-13T20:17:48.992Z,14.89
2023-05-13T20:20:17.548Z,14.92
2023-05-13T20:22:45.849Z,14.81
2023-05-13T20:25:14.489Z,14.78
2023-05-13T20:27:43.256Z,14.80
2023-05-13T20:30:12.688Z,14.80
2023-05-13T20:32:42.384Z,14.72
2023-05-13T20:35:11.938Z,14.62
2023-05-13T20:37:43.448Z,14.60
2023-05-13T20:40:12.641Z,14.53
2023-05-13T20:42:45.114Z,14.61
2023-05-13T20:45:13.945Z,14.53
2023-05-13T20:47:44.008Z,14.52
2023-05-13T20:50:14.092Z,14.40
2023-05-13T20:52:42.609Z,14.24
2023-05-13T20:55:11.351Z,14.17
2023-05-13T20:57:39.845Z,14.15
2023-05-13T21:00:12.905Z,14.09
2023-05-13T21:02:41.297Z,14.16
2023-05-13T21:05:11.446Z,14.06
2023-05-13T21:07:39.793Z,14.01
2023-05-13T21:10:09.430Z,13.91
2023-05-13T21:12:37.756Z,13.76
2023-05-13T21:15:06.725Z,13.73
2023-05-13T21:17:34.953Z,13.76
2023-05-13T21:20:04.597Z,13.70
2023-05-13T21:22:34.529Z,13.79
2023-05-13T21:25:02.882Z,13.73
2023-05-13T21:27:30.997Z,13.52
2023-05-13T21:30:00.267Z,13.43
2023-05-13T21:32:28.633Z,13.51
2023-05-13T21:34:57.288Z,13.48
2023-05-13T21:37:27.606Z,13.50
2023-05-13T21:39:58.268Z,13.56
2023-05-13T21:42:27.156Z,13.67
2023-05-13T21:44:55.373Z,13.60
2023-05-13T21:47:23.685Z,13.55
2023-05-13T21:49:52.952Z,13.58
2023-05-13T21:52:21.365Z,13.59
2023-05-13T21:54:49.559Z,13.58
2023-05-13T21:57:19.825Z,13.54
2023-05-13T21:59:53.234Z,13.43
2023-05-13T22:02:21.462Z,13.48
2023-05-13T22:04:49.561Z,13.36
2023-05-13T22:07:18.028Z,13.33
2023-05-13T22:09:47.901Z,13.24
2023-05-13T22:12:21.260Z,13.27
2023-05-13T22:14:49.383Z,13.29
2023-05-13T22:17:17.750Z,13.12
2023-05-13T22:19:46.683Z,13.10
2023-05-13T22:22:15.923Z,13.15
2023-05-13T22:24:44.622Z,13.16
2023-05-13T22:27:14.321Z,13.04
2023-05-13T22:29:43.999Z,13.02
2023-05-13T22:32:12.421Z,13.09
2023-05-13T22:34:40.852Z,13.05
2023-05-13T22:37:09.201Z,12.97
2023-05-13T22:39:37.497Z,12.94
2023-05-13T22:42:06.785Z,12.88
2023-05-13T22:44:35.023Z,12.78
2023-05-13T22:47:04.657Z,12.74
2023-05-13T22:49:33.191Z,12.81
2023-05-13T22:52:07.301Z,12.68
2023-05-13T22:54:35.773Z,12.62
2023-05-13T22:57:03.836Z,12.57
2023-05-13T22:59:32.721Z,12.60
2023-05-13T23:02:01.052Z,12.63
2023-05-13T23:04:31.107Z,12.66
2023-05-13T23:07:00.518Z,12.68
2023-05-13T23:09:28.677Z,12.75
2023-05-13T23:11:57.106Z,12.91
2023-05-13T23:14:25.789Z,12.91
2023-05-13T23:16:54.151Z,12.85
2023-05-13T23:19:22.102Z,12.72
2023-05-13T23:21:53.163Z,12.66
2023-05-13T23:24:22.093Z,12.69
2023-05-13T23:26:50.628Z,12.69
2023-05-13T23:29:18.902Z,12.68
2023-05-13T23:31:47.120Z,12.64
2023-05-13T23:34:15.544Z,12.59
2023-05-13T23:36:44.149Z,12.59
2023-05-13T23:39:13.697Z,12.59
2023-05-13T23:41:42.127Z,12.52
2023-05-13T23:44:10.198Z,12.56
2023-05-13T23:46:38.451Z,12.45
2023-05-13T23:49:06.600Z,12.46
2023-05-13T23:51:34.804Z,12.39
2023-05-13T23:54:03.924Z,12.46
2023-05-13T23:56:34.272Z,12.35
2023-05-13T23:59:02.748Z,12.39
